Beverly, MA

4:41 AM EDT on October 02, 2014 (GMT -0400)
Clifton | Change Station
CLOSE
Current Station
Personal Weather Station
Location: Marblehead, MA
Elevation: 53 ft
Nearby Weather Stations

Elev 53 ft 42.48 °N, 70.88 °W | Updated 1 minute ago

Light Rain
Light Rain
56.1 °F
Feels Like 56.1 °F
N
2.0
Wind Variable Wind from SSW

Today
High -- | Low -- °F
--% Chance of Precip.
Yesterday
High -- | Low -- °F
Precip. -- in
6:41 AM 6:23 PM
First Quarter, 56% visible
Pressure 30.10 in
Visibility 10.0 miles
Clouds Mostly Cloudy 700 ft
Overcast 1100 ft
Dew Point 53 °F
Humidity 88%
Rainfall 0.12 in
Snow Depth Not available.
UV 0 out of 12
Pollen .40 out of 12
Air Quality Not available.
Flu Activity Not available.
METAR KBVY 020753Z AUTO 03011G19KT 10SM -RA BKN007 OVC011 13/12 A3011 RMK AO2 CIG 005V010 SLP193 P0004 T01330117

More Conditions Fewer Conditions

Pressure 30.10 in
Visibility 10.0 miles
Clouds Mostly Cloudy 700 ft
Overcast 1100 ft
Dew Point 53 °F
Humidity 88%
Rainfall 0.12 in
Snow Depth Not available.
UV 0 out of 12
Pollen .40 out of 12
Air Quality Not available.
Flu Activity Not available.
METAR KBVY 020753Z AUTO 03011G19KT 10SM -RA BKN007 OVC011 13/12 A3011 RMK AO2 CIG 005V010 SLP193 P0004 T01330117

More Conditions Fewer Conditions

10-Day Weather Forecast

Almanac

Astronomy

Oct. 02, 2014 Rise Set
Actual Time 6:41 AM EDT 6:23 PM EDT
Civil Twilight 6:13 AM EDT 6:51 PM EDT
Nautical Twilight 5:41 AM EDT 7:24 PM EDT
Astronomical Twilight 5:08 AM EDT 7:57 PM EDT
Moon 2:33 PM EDT No Moon Set
Length of Visible Light 12h 37m
Length of Day
11h 41m
Tomorrow will be 2m 52s shorter.
First Quarter, 56% of the Moon is Illuminated
Today
First Quarter
Oct 8
Full
Oct 15
Last Quarter
Oct 23
New
Oct 30
First Quarter

Today's Extremes

State Highs State Lows

Community

WunderPhotos

Upload Photos

1,758,196 photos uploaded!

WunderBlogs® & News

By Dr. Jeff Masters
Director of Meteorology, Weather Underground
By Kari Strenfel
Meteorologist, Weather Underground
By Christopher C. Burt
Weather Historian, Weather Underground
October 2, 2014
October 2, 2014
October 2, 2014

Nearby

Air Quality

  Air Quality AQ Index Pollutant
Yesterday Good
OZONE
Yesterday Good
PM2.5
Thursday Good
PM2.5
Thursday Good
OZONE

Snow Depth

Station Depth Elevation
No new snow has been reported.

Earthquake Activity

City Distance Mag. Time & Date
No recent earthquake activity has been reported nearby.
Minimum magnitude displayed is 2.5.

Coastal Water Temperatures

Place Temperature
Boston, MA 62.1 °F
Fall River, MA 66.9 °F

Nearby Weather Stations